Corona Emblem — 3FHF8 — position and weather

sailwx.info

Track history (hours):
 
Tides and Currents Weather Stations Pressure Air Temp Water Temp Dewpoint Dewpoint Depression Visibility Wind Speed Wind Dir Waves Ship Positions

Corona Emblem

Last reported at 2015-May-19 16:18 UTC. Time now 2015-May-24 13:12 UTC.
Position S 26°17' E 153°53'.

Length 230 m; beam 36 m.

Type: Cargo ship. MMSI: 354224000.

Date/timePositionNaut miles runAvg speedWind from/ knotsBaromVisibWave heightAir tempDewpointWater temp
2015-May-19 16:18S 26°17' E 153°53'2511.7
2015-May-19 14:07S 26°43' E 153°52'712.0
2015-May-19 13:33S 26°49' E 153°52'1212.1
2015-May-19 12:33S 27°02' E 153°51'1212.4
2015-May-19 11:34S 27°14' E 153°51'1212.1
2015-May-19 10:33S 27°26' E 153°50'1412.0
2015-May-19 09:22S 27°40' E 153°50'1211.8
2015-May-19 08:21S 27°52' E 153°47'28210.9
2015-May-18 06:33S 32°28' E 152°40'1010.5
2015-May-18 05:33S 32°35' E 152°32'1111.5
2015-May-18 04:33S 32°44' E 152°22'1111.0
2015-May-18 03:34S 32°51' E 152°12'1110.6
2015-May-18 02:33S 32°55' E 152°01'10 9.5
2015-May-18 01:33S 32°56' E 151°49'4 3.6
2015-May-18 00:33S 32°53' E 151°46'0 0.0
2015-May-17 18:16S 32°53' E 151°46'0 0.0
2015-May-17 14:22S 32°53' E 151°46'0 0.0
2015-May-17 13:31S 32°53' E 151°46'0 0.0
2015-May-17 12:28S 32°53' E 151°46'0 0.0
2015-May-17 11:31S 32°53' E 151°46'0 0.0
2015-May-17 10:28S 32°53' E 151°46'0 0.0
2015-May-17 09:31S 32°53' E 151°46'4 3.9
2015-May-17 08:34S 32°56' E 151°50'8 8.3
2015-May-17 07:34S 33°02' E 151°56'4 4.3
2015-May-17 06:33S 33°04' E 152°01'2 2.4
2015-May-17 05:33S 33°05' E 152°04'7 6.7
2015-May-17 04:33S 33°09' E 152°10'8 7.6
2015-May-17 03:33S 33°14' E 152°17'1 1.0
2015-May-17 02:22S 33°14' E 152°18'1 0.6
2015-May-17 01:29S 33°14' E 152°19'1 0.6
2015-May-17 00:32S 33°14' E 152°20'1 0.6
2015-May-16 23:23S 33°14' E 152°20'1 0.6
2015-May-16 22:30S 33°14' E 152°21'1 0.5
2015-May-16 21:26S 33°14' E 152°22'1 0.8
2015-May-16 20:33S 33°15' E 152°22'1 0.7
2015-May-16 19:33S 33°15' E 152°23'8 7.6
2015-May-16 18:27S 33°12' E 152°14'3 2.8
2015-May-16 17:31S 33°09' E 152°15'1 1.4
2015-May-16 16:33S 33°10' E 152°17'1 1.4
2015-May-16 15:33S 33°10' E 152°18'1 1.4
2015-May-16 14:32S 33°10' E 152°20'2 1.6
2015-May-16 13:33S 33°10' E 152°22'2 1.5
2015-May-16 12:33S 33°10' E 152°24'2 1.7
2015-May-16 11:17S 33°10' E 152°26'3 3.2
2015-May-16 10:30S 33°07' E 152°27'9 9.6
2015-May-16 09:33S 32°59' E 152°25'6 6.1
2015-May-16 08:33S 32°53' E 152°23'1 1.2
2015-May-16 07:33S 32°54' E 152°23'1 1.2
2015-May-16 06:33S 32°55' E 152°24'1 1.2
2015-May-16 05:33S 32°56' E 152°24'1 1.2
2015-May-16 04:33S 32°57' E 152°24'1 1.3
2015-May-16 03:33S 32°59' E 152°24'1 1.3
2015-May-16 02:33S 32°60' E 152°24'1 1.2
2015-May-16 01:33S 33°01' E 152°24'1 1.2
2015-May-16 00:33S 33°02' E 152°24'1 1.0
2015-May-15 23:33S 33°03' E 152°24'1 0.8
2015-May-15 22:22S 33°04' E 152°24'7 8.0
2015-May-15 21:33S 32°59' E 152°28'8 8.1
2015-May-15 20:33S 32°52' E 152°33'8 7.6
2015-May-15 19:33S 32°44' E 152°34'2 2.4
2015-May-15 18:34S 32°42' E 152°34'1 1.1
2015-May-15 17:33S 32°43' E 152°34'1 1.2
2015-May-15 16:33S 32°44' E 152°34'1 1.4
2015-May-15 15:33S 32°46' E 152°34'2 1.5
2015-May-15 14:33S 32°47' E 152°35'2 1.6
2015-May-15 13:33S 32°49' E 152°35'2 1.6
2015-May-15 12:33S 32°50' E 152°35'2 1.7
2015-May-15 11:33S 32°52' E 152°35'2 1.7
2015-May-15 10:33S 32°54' E 152°35'0 0.5
2015-May-15 09:33S 32°54' E 152°34'4 3.5
2015-May-15 08:33S 32°51' E 152°32'5 4.7
2015-May-15 07:33S 32°48' E 152°28'3 3.2
2015-May-15 06:33S 32°47' E 152°24'2 2.2
2015-May-15 05:33S 32°49' E 152°24'2 2.1
2015-May-15 04:33S 32°52' E 152°23'4 3.9
2015-May-15 03:33S 32°48' E 152°25'3 3.4
2015-May-15 02:33S 32°45' E 152°28'4 4.5
2015-May-15 01:33S 32°43' E 152°32'1 0.9
2015-May-15 00:33S 32°43' E 152°33'2 1.8
2015-May-14 23:33S 32°45' E 152°32'2 1.7
2015-May-14 22:33S 32°46' E 152°31'2 1.8
2015-May-14 21:33S 32°48' E 152°30'2 1.7
2015-May-14 20:33S 32°49' E 152°29'2 1.8
2015-May-14 19:33S 32°51' E 152°28'2 2.0
2015-May-14 18:33S 32°53' E 152°27'2 1.9
2015-May-14 17:33S 32°54' E 152°26'2 1.8
2015-May-14 16:33S 32°55' E 152°24'2 1.6
2015-May-14 15:33S 32°57' E 152°23'2 1.9
2015-May-14 14:33S 32°58' E 152°22'2 2.3
2015-May-14 13:33S 32°60' E 152°20'2 2.2
2015-May-14 12:33S 33°02' E 152°18'2 2.0
2015-May-14 11:33S 33°03' E 152°17'2 2.1
2015-May-14 10:33S 33°04' E 152°15'2 2.1
2015-May-14 09:33S 33°05' E 152°13'2 2.1
2015-May-14 08:33S 33°07' E 152°10'2 2.2
2015-May-14 07:33S 33°08' E 152°08'2 2.2
2015-May-14 06:32S 33°10' E 152°07'2 2.3
2015-May-14 05:33S 33°12' E 152°05'2 2.5
2015-May-14 04:33S 33°14' E 152°04'3 2.6
2015-May-14 03:33S 33°16' E 152°02'1 1.2
2015-May-14 02:33S 33°15' E 152°03'5 4.7
2015-May-14 01:33S 33°14' E 152°08'3 2.6
2015-May-14 00:31S 33°17' E 152°08'3 2.5
2015-May-13 23:16S 33°17' E 152°12'4 4.8
2015-May-13 22:22S 33°13' E 152°13'2 2.8
2015-May-13 21:33S 33°13' E 152°11'2 1.9
2015-May-13 20:33S 33°13' E 152°09'2 1.8
2015-May-13 19:33S 33°14' E 152°07'2 1.6
2015-May-13 18:32S 33°15' E 152°06'2 1.6
2015-May-13 17:31S 33°17' E 152°04'2 1.6
2015-May-13 16:27S 33°18' E 152°03'2 2.1
2015-May-13 15:33S 33°19' E 152°02'14 1.4
2015-May-13 05:33S 33°07' E 151°56'9 9.0
2015-May-13 04:33S 33°03' E 152°06'1 1.4
2015-May-13 03:33S 33°02' E 152°07'6 5.6
2015-May-13 02:33S 33°04' E 152°01'9 8.7
2015-May-13 01:33S 32°55' E 152°04'1110.8
2015-May-13 00:33S 32°49' E 152°15'1111.1
2015-May-12 23:33S 32°42' E 152°24'1110.8
2015-May-12 22:33S 32°34' E 152°33'1010.4
2015-May-12 21:33S 32°27' E 152°42'  
2015-May-10 00:24S 27°28' E 154°03'6 0.8
2015-May-09 17:12S 27°34' E 154°03'  
Track history (hours):
 
Tides and Currents Weather Stations Pressure Air Temp Water Temp Dewpoint Dewpoint Depression Visibility Wind Speed Wind Dir Waves Ship Positions

Corona Emblem

Last reported at 2015-May-19 16:18 UTC. Time now 2015-May-24 13:12 UTC.
Position S 26°17' E 153°53'.

Length 230 m; beam 36 m.

Type: Cargo ship. MMSI: 354224000.

Date/timePositionNaut miles runAvg speedWind from/ knotsBaromVisibWave heightAir tempDewpointWater temp
2015-May-19 16:18S 26°17' E 153°53'2511.7
2015-May-19 14:07S 26°43' E 153°52'712.0
2015-May-19 13:33S 26°49' E 153°52'1212.1
2015-May-19 12:33S 27°02' E 153°51'1212.4
2015-May-19 11:34S 27°14' E 153°51'1212.1
2015-May-19 10:33S 27°26' E 153°50'1412.0
2015-May-19 09:22S 27°40' E 153°50'1211.8
2015-May-19 08:21S 27°52' E 153°47'28210.9
2015-May-18 06:33S 32°28' E 152°40'1010.5
2015-May-18 05:33S 32°35' E 152°32'1111.5
2015-May-18 04:33S 32°44' E 152°22'1111.0
2015-May-18 03:34S 32°51' E 152°12'1110.6
2015-May-18 02:33S 32°55' E 152°01'10 9.5
2015-May-18 01:33S 32°56' E 151°49'4 3.6
2015-May-18 00:33S 32°53' E 151°46'0 0.0
2015-May-17 18:16S 32°53' E 151°46'0 0.0
2015-May-17 14:22S 32°53' E 151°46'0 0.0
2015-May-17 13:31S 32°53' E 151°46'0 0.0
2015-May-17 12:28S 32°53' E 151°46'0 0.0
2015-May-17 11:31S 32°53' E 151°46'0 0.0
2015-May-17 10:28S 32°53' E 151°46'0 0.0
2015-May-17 09:31S 32°53' E 151°46'4 3.9
2015-May-17 08:34S 32°56' E 151°50'8 8.3
2015-May-17 07:34S 33°02' E 151°56'4 4.3
2015-May-17 06:33S 33°04' E 152°01'2 2.4
2015-May-17 05:33S 33°05' E 152°04'7 6.7
2015-May-17 04:33S 33°09' E 152°10'8 7.6
2015-May-17 03:33S 33°14' E 152°17'1 1.0
2015-May-17 02:22S 33°14' E 152°18'1 0.6
2015-May-17 01:29S 33°14' E 152°19'1 0.6
2015-May-17 00:32S 33°14' E 152°20'1 0.6
2015-May-16 23:23S 33°14' E 152°20'1 0.6
2015-May-16 22:30S 33°14' E 152°21'1 0.5
2015-May-16 21:26S 33°14' E 152°22'1 0.8
2015-May-16 20:33S 33°15' E 152°22'1 0.7
2015-May-16 19:33S 33°15' E 152°23'8 7.6
2015-May-16 18:27S 33°12' E 152°14'3 2.8
2015-May-16 17:31S 33°09' E 152°15'1 1.4
2015-May-16 16:33S 33°10' E 152°17'1 1.4
2015-May-16 15:33S 33°10' E 152°18'1 1.4
2015-May-16 14:32S 33°10' E 152°20'2 1.6
2015-May-16 13:33S 33°10' E 152°22'2 1.5
2015-May-16 12:33S 33°10' E 152°24'2 1.7
2015-May-16 11:17S 33°10' E 152°26'3 3.2
2015-May-16 10:30S 33°07' E 152°27'9 9.6
2015-May-16 09:33S 32°59' E 152°25'6 6.1
2015-May-16 08:33S 32°53' E 152°23'1 1.2
2015-May-16 07:33S 32°54' E 152°23'1 1.2
2015-May-16 06:33S 32°55' E 152°24'1 1.2
2015-May-16 05:33S 32°56' E 152°24'1 1.2
2015-May-16 04:33S 32°57' E 152°24'1 1.3
2015-May-16 03:33S 32°59' E 152°24'1 1.3
2015-May-16 02:33S 32°60' E 152°24'1 1.2
2015-May-16 01:33S 33°01' E 152°24'1 1.2
2015-May-16 00:33S 33°02' E 152°24'1 1.0
2015-May-15 23:33S 33°03' E 152°24'1 0.8
2015-May-15 22:22S 33°04' E 152°24'7 8.0
2015-May-15 21:33S 32°59' E 152°28'8 8.1
2015-May-15 20:33S 32°52' E 152°33'8 7.6
2015-May-15 19:33S 32°44' E 152°34'2 2.4
2015-May-15 18:34S 32°42' E 152°34'1 1.1
2015-May-15 17:33S 32°43' E 152°34'1 1.2
2015-May-15 16:33S 32°44' E 152°34'1 1.4
2015-May-15 15:33S 32°46' E 152°34'2 1.5
2015-May-15 14:33S 32°47' E 152°35'2 1.6
2015-May-15 13:33S 32°49' E 152°35'2 1.6
2015-May-15 12:33S 32°50' E 152°35'2 1.7
2015-May-15 11:33S 32°52' E 152°35'2 1.7
2015-May-15 10:33S 32°54' E 152°35'0 0.5
2015-May-15 09:33S 32°54' E 152°34'4 3.5
2015-May-15 08:33S 32°51' E 152°32'5 4.7
2015-May-15 07:33S 32°48' E 152°28'3 3.2
2015-May-15 06:33S 32°47' E 152°24'2 2.2
2015-May-15 05:33S 32°49' E 152°24'2 2.1
2015-May-15 04:33S 32°52' E 152°23'4 3.9
2015-May-15 03:33S 32°48' E 152°25'3 3.4
2015-May-15 02:33S 32°45' E 152°28'4 4.5
2015-May-15 01:33S 32°43' E 152°32'1 0.9
2015-May-15 00:33S 32°43' E 152°33'2 1.8
2015-May-14 23:33S 32°45' E 152°32'2 1.7
2015-May-14 22:33S 32°46' E 152°31'2 1.8
2015-May-14 21:33S 32°48' E 152°30'2 1.7
2015-May-14 20:33S 32°49' E 152°29'2 1.8
2015-May-14 19:33S 32°51' E 152°28'2 2.0
2015-May-14 18:33S 32°53' E 152°27'2 1.9
2015-May-14 17:33S 32°54' E 152°26'2 1.8
2015-May-14 16:33S 32°55' E 152°24'2 1.6
2015-May-14 15:33S 32°57' E 152°23'2 1.9
2015-May-14 14:33S 32°58' E 152°22'2 2.3
2015-May-14 13:33S 32°60' E 152°20'2 2.2
2015-May-14 12:33S 33°02' E 152°18'2 2.0
2015-May-14 11:33S 33°03' E 152°17'2 2.1
2015-May-14 10:33S 33°04' E 152°15'2 2.1
2015-May-14 09:33S 33°05' E 152°13'2 2.1
2015-May-14 08:33S 33°07' E 152°10'2 2.2
2015-May-14 07:33S 33°08' E 152°08'2 2.2
2015-May-14 06:32S 33°10' E 152°07'2 2.3
2015-May-14 05:33S 33°12' E 152°05'2 2.5
2015-May-14 04:33S 33°14' E 152°04'3 2.6
2015-May-14 03:33S 33°16' E 152°02'1 1.2
2015-May-14 02:33S 33°15' E 152°03'5 4.7
2015-May-14 01:33S 33°14' E 152°08'3 2.6
2015-May-14 00:31S 33°17' E 152°08'3 2.5
2015-May-13 23:16S 33°17' E 152°12'4 4.8
2015-May-13 22:22S 33°13' E 152°13'2 2.8
2015-May-13 21:33S 33°13' E 152°11'2 1.9
2015-May-13 20:33S 33°13' E 152°09'2 1.8
2015-May-13 19:33S 33°14' E 152°07'2 1.6
2015-May-13 18:32S 33°15' E 152°06'2 1.6
2015-May-13 17:31S 33°17' E 152°04'2 1.6
2015-May-13 16:27S 33°18' E 152°03'2 2.1
2015-May-13 15:33S 33°19' E 152°02'14 1.4
2015-May-13 05:33S 33°07' E 151°56'9 9.0
2015-May-13 04:33S 33°03' E 152°06'1 1.4
2015-May-13 03:33S 33°02' E 152°07'6 5.6
2015-May-13 02:33S 33°04' E 152°01'9 8.7
2015-May-13 01:33S 32°55' E 152°04'1110.8
2015-May-13 00:33S 32°49' E 152°15'1111.1
2015-May-12 23:33S 32°42' E 152°24'1110.8
2015-May-12 22:33S 32°34' E 152°33'1010.4
2015-May-12 21:33S 32°27' E 152°42'  
2015-May-10 00:24S 27°28' E 154°03'6 0.8
2015-May-09 17:12S 27°34' E 154°03'  

Dump ship's entire track history